Time;durP1;ratioP1;P1;durP2;ratioP2;P2;SDS_P1;SDS_P2;PMS_P1;PMS_P2;Temp;Humidity;BMP_temperature;BMP_pressure;BME280_temperature;BME280_humidity;BME280_pressure;Samples;Min_cycle;Max_cycle;Signal;HPM_P1;HPM_P2
2022/10/15 00:02:37;;;;;;;5.22;3.67;;;;;14.70;95814.00;;;;8327522;28;20217;-76
2022/10/15 00:06:40;;;;;;;6.45;3.08;;;;;14.80;95821.00;;;;8327895;28;20217;-76
2022/10/15 00:11:17;;;;;;;3.25;2.70;;;;;14.70;95805.00;;;;8326824;28;20229;-76
2022/10/15 00:15:21;;;;;;;2.72;2.50;;;;;14.70;95803.00;;;;8327516;28;20225;-76
2022/10/15 00:19:24;;;;;;;2.78;2.58;;;;;14.80;95798.00;;;;8327636;28;20235;-76
2022/10/15 00:23:27;;;;;;;3.83;2.53;;;;;14.80;95802.00;;;;8327468;28;20231;-76
2022/10/15 00:27:34;;;;;;;6.15;2.40;;;;;14.80;95791.00;;;;8327353;28;20231;-77
2022/10/15 00:31:38;;;;;;;2.63;2.42;;;;;14.80;95792.00;;;;8326782;28;20235;-75
2022/10/15 00:36:11;;;;;;;4.78;2.83;;;;;14.80;95789.00;;;;8331894;28;20221;-75
2022/10/15 00:40:15;;;;;;;3.28;2.50;;;;;14.80;95794.00;;;;8334177;28;20224;-76
2022/10/15 00:44:50;;;;;;;5.88;2.88;;;;;14.80;95797.00;;;;8333775;28;20225;-75
2022/10/15 00:49:00;;;;;;;2.88;2.63;;;;;14.80;95792.00;;;;8333422;28;20228;-76
2022/10/15 00:53:08;;;;;;;3.10;2.63;;;;;14.80;95781.00;;;;8334020;28;20221;-76
2022/10/15 00:57:38;;;;;;;2.80;2.60;;;;;14.80;95782.00;;;;8332764;28;20638;-76
2022/10/15 01:01:42;;;;;;;5.40;3.30;;;;;14.80;95777.00;;;;8333473;28;20224;-77
2022/10/15 01:05:47;;;;;;;2.88;2.67;;;;;14.80;95767.00;;;;8332808;28;20225;-77
2022/10/15 01:09:51;;;;;;;3.95;2.92;;;;;14.80;95767.00;;;;8333454;28;20225;-76
2022/10/15 01:14:01;;;;;;;3.65;2.88;;;;;14.80;95758.00;;;;8332566;28;20221;-75
2022/10/15 01:18:32;;;;;;;5.55;3.00;;;;;14.80;95756.00;;;;8333693;28;20252;-75
2022/10/15 01:22:46;;;;;;;5.28;2.80;;;;;14.80;95755.00;;;;8332182;28;20543;-75
2022/10/15 01:27:17;;;;;;;3.10;2.80;;;;;14.70;95742.00;;;;8332746;28;20221;-75
2022/10/15 01:31:42;;;;;;;5.32;3.42;;;;;14.70;95732.00;;;;8331015;28;20216;-75
2022/10/15 01:35:49;;;;;;;4.43;3.22;;;;;14.80;95734.00;;;;8331688;28;20221;-74
2022/10/15 01:40:21;;;;;;;5.72;4.10;;;;;14.80;95732.00;;;;8331886;28;20661;-73
2022/10/15 01:44:31;;;;;;;3.42;3.13;;;;;14.80;95722.00;;;;8332078;28;20224;-72
2022/10/15 01:48:38;;;;;;;6.30;3.20;;;;;14.80;95710.00;;;;8331644;28;20529;-74
2022/10/15 01:52:43;;;;;;;3.70;3.20;;;;;14.80;95709.00;;;;8331950;28;20216;-76
2022/10/15 01:57:17;;;;;;;4.72;3.95;;;;;14.80;95707.00;;;;8331041;28;20349;-73
2022/10/15 02:01:20;;;;;;;3.72;3.05;;;;;14.80;95708.00;;;;8331362;28;20690;-73
2022/10/15 02:06:01;;;;;;;3.65;3.28;;;;;14.80;95701.00;;;;8331772;28;20316;-72
2022/10/15 02:10:31;;;;;;;3.83;3.40;;;;;14.80;95696.00;;;;8326685;28;20221;-72
2022/10/15 02:14:39;;;;;;;5.50;2.85;;;;;14.80;95695.00;;;;8330874;28;20213;-73
2022/10/15 02:18:48;;;;;;;3.53;3.22;;;;;14.80;95691.00;;;;8331459;28;20216;-73
2022/10/15 02:23:18;;;;;;;5.38;2.88;;;;;14.80;95687.00;;;;8331167;28;20627;-73
2022/10/15 02:27:24;;;;;;;4.22;3.20;;;;;14.80;95693.00;;;;8330899;28;20228;-76
2022/10/15 02:31:30;;;;;;;4.63;2.95;;;;;14.90;95683.00;;;;8330401;28;20225;-75
2022/10/15 02:36:04;;;;;;;3.63;3.03;;;;;14.90;95681.00;;;;8330454;28;20237;-74
2022/10/15 02:40:08;;;;;;;3.13;2.60;;;;;14.90;95675.00;;;;8330342;28;20540;-75
2022/10/15 02:44:13;;;;;;;5.50;3.17;;;;;14.80;95673.00;;;;8330349;28;20600;-75
2022/10/15 02:48:47;;;;;;;3.65;2.58;;;;;14.80;95667.00;;;;8329196;28;20229;-76
2022/10/15 02:52:50;;;;;;;3.08;2.78;;;;;14.90;95668.00;;;;8330510;28;20218;-76
2022/10/15 02:56:53;;;;;;;2.55;2.30;;;;;14.80;95660.00;;;;8329296;28;20225;-76
2022/10/15 03:01:32;;;;;;;3.83;2.45;;;;;14.80;95664.00;;;;8329529;28;20228;-76
2022/10/15 03:05:40;;;;;;;2.67;2.47;;;;;14.90;95668.00;;;;8329470;28;20220;-76
2022/10/15 03:09:43;;;;;;;3.22;2.60;;;;;14.90;95667.00;;;;8329600;28;20221;-78
2022/10/15 03:13:47;;;;;;;2.28;2.17;;;;;14.90;95665.00;;;;8328477;28;20226;-78
2022/10/15 03:17:51;;;;;;;2.50;2.30;;;;;14.90;95658.00;;;;8329632;28;20229;-78
2022/10/15 03:22:25;;;;;;;2.47;2.28;;;;;14.90;95656.00;;;;8328815;28;20225;-78
2022/10/15 03:27:01;;;;;;;5.05;2.20;;;;;14.90;95649.00;;;;8329395;28;20225;-78
2022/10/15 03:31:38;;;;;;;2.25;2.05;;;;;14.80;95643.00;;;;8328915;28;20216;-77
2022/10/15 03:35:42;;;;;;;1.98;1.80;;;;;14.90;95643.00;;;;8328194;28;20214;-77
2022/10/15 03:40:16;;;;;;;2.03;1.85;;;;;14.80;95641.00;;;;8325322;28;20217;-78
2022/10/15 03:44:53;;;;;;;1.90;1.70;;;;;14.80;95650.00;;;;8328179;28;20224;-78
2022/10/15 03:48:56;;;;;;;3.17;1.55;;;;;14.80;95643.00;;;;8328532;28;20224;-77
2022/10/15 03:53:35;;;;;;;3.25;2.72;;;;;14.90;95644.00;;;;8328135;28;20225;-80
2022/10/15 03:57:38;;;;;;;1.60;1.60;;;;;14.90;95637.00;;;;8328209;28;20218;-79
2022/10/15 04:01:42;;;;;;;2.45;1.77;;;;;14.90;95633.00;;;;8328468;28;20608;-79
2022/10/15 04:05:50;;;;;;;1.88;1.50;;;;;14.90;95631.00;;;;8328110;28;20228;-78
2022/10/15 04:10:22;;;;;;;1.30;1.30;;;;;14.90;95634.00;;;;8327999;28;20296;-79
2022/10/15 04:14:26;;;;;;;1.60;1.55;;;;;14.90;95634.00;;;;8327825;28;20663;-78
2022/10/15 04:18:29;;;;;;;2.53;1.30;;;;;14.90;95626.00;;;;8327938;28;20225;-80
2022/10/15 04:22:32;;;;;;;3.42;1.50;;;;;15.00;95631.00;;;;8327498;28;20705;-79
2022/10/15 04:26:36;;;;;;;4.88;1.70;;;;;15.00;95636.00;;;;8327790;28;20236;-79
2022/10/15 04:30:39;;;;;;;1.88;1.50;;;;;15.00;95627.00;;;;8326562;28;20217;-81
2022/10/15 04:34:44;;;;;;;3.47;1.40;;;;;15.00;95638.00;;;;8328218;28;20221;-79
2022/10/15 04:38:47;;;;;;;1.80;1.70;;;;;15.00;95627.00;;;;8326096;28;20232;-77
2022/10/15 04:43:24;;;;;;;1.42;1.40;;;;;15.00;95633.00;;;;8327167;28;20650;-80
2022/10/15 04:48:02;;;;;;;1.60;1.45;;;;;15.00;95630.00;;;;8326838;28;20217;-89
2022/10/15 04:52:36;;;;;;;2.88;1.60;;;;;15.00;95630.00;;;;8327320;28;20252;-86
2022/10/15 04:57:12;;;;;;;3.80;1.50;;;;;15.00;95635.00;;;;8326853;28;20302;-81
2022/10/15 05:01:49;;;;;;;1.58;1.40;;;;;15.00;95624.00;;;;8327637;28;20236;-81
2022/10/15 05:06:28;;;;;;;1.60;1.38;;;;;15.00;95616.00;;;;8326482;28;20308;-80
2022/10/15 05:11:01;;;;;;;1.40;1.30;;;;;15.10;95620.00;;;;8327461;28;20229;-82
2022/10/15 05:15:38;;;;;;;1.27;1.27;;;;;15.10;95623.00;;;;8327125;28;20272;-82
2022/10/15 05:19:41;;;;;;;1.30;1.30;;;;;15.10;95622.00;;;;8327362;28;20228;-77
2022/10/15 05:24:18;;;;;;;1.20;1.20;;;;;15.10;95625.00;;;;8333045;28;20544;-83
2022/10/15 05:28:22;;;;;;;1.48;1.38;;;;;15.10;95620.00;;;;8331979;28;20232;-80
2022/10/15 05:32:59;;;;;;;1.85;1.58;;;;;15.10;95636.00;;;;8333159;28;20260;-78
2022/10/15 05:37:37;;;;;;;5.40;1.45;;;;;15.10;95636.00;;;;8331443;28;20233;-79
2022/10/15 05:42:13;;;;;;;1.48;1.40;;;;;15.10;95645.00;;;;8332126;28;20217;-79
2022/10/15 05:46:51;;;;;;;1.77;1.60;;;;;15.10;95651.00;;;;8332271;28;20650;-83
2022/10/15 05:51:25;;;;;;;1.63;1.52;;;;;15.10;95646.00;;;;8331423;28;20244;-82
2022/10/15 05:55:28;;;;;;;2.72;1.50;;;;;15.20;95645.00;;;;8331375;28;20217;-80
2022/10/15 06:00:04;;;;;;;2.33;2.13;;;;;15.20;95648.00;;;;8326808;28;20237;-76
2022/10/15 06:04:39;;;;;;;3.30;2.67;;;;;15.20;95654.00;;;;8328046;28;20244;-77
2022/10/15 06:09:16;;;;;;;1.70;1.60;;;;;15.20;95658.00;;;;8326917;28;20222;-77
2022/10/15 06:13:19;;;;;;;1.25;1.20;;;;;15.20;95664.00;;;;8331067;28;20227;-78
2022/10/15 06:17:56;;;;;;;1.55;1.45;;;;;15.20;95671.00;;;;8330821;28;20667;-79
2022/10/15 06:22:23;;;;;;;1.92;1.70;;;;;15.30;95670.00;;;;8330648;28;20237;-77
2022/10/15 06:26:58;;;;;;;6.15;1.83;;;;;15.40;95674.00;;;;8331401;28;20225;-80
2022/10/15 06:31:32;;;;;;;4.25;2.30;;;;;15.40;95688.00;;;;8329118;28;20224;-76
2022/10/15 06:35:35;;;;;;;7.53;2.05;;;;;15.40;95678.00;;;;8329804;28;20221;-72
2022/10/15 06:40:12;;;;;;;4.28;2.03;;;;;15.50;95702.00;;;;8329687;28;20225;-74
2022/10/15 06:44:17;;;;;;;2.67;1.58;;;;;15.60;95700.00;;;;8327711;28;20221;-75
2022/10/15 06:48:20;;;;;;;2.00;1.90;;;;;15.60;95703.00;;;;8329957;28;20308;-74
2022/10/15 06:52:57;;;;;;;8.25;2.17;;;;;15.60;95721.00;;;;8328778;28;20631;-73
2022/10/15 06:57:33;;;;;;;1.85;1.75;;;;;15.70;95724.00;;;;8328130;28;20255;-74
2022/10/15 07:02:12;;;;;;;5.53;2.03;;;;;15.80;95727.00;;;;8327690;28;20253;-75
2022/10/15 07:06:46;;;;;;;2.53;2.33;;;;;15.80;95727.00;;;;8329965;28;20225;-76
2022/10/15 07:10:50;;;;;;;4.05;2.30;;;;;16.00;95731.00;;;;8328982;28;20229;-75
2022/10/15 07:15:27;;;;;;;1.80;1.70;;;;;16.00;95741.00;;;;8329350;28;20221;-76
2022/10/15 07:20:06;;;;;;;2.67;1.83;;;;;16.10;95737.00;;;;8328218;28;20236;-77
2022/10/15 07:24:40;;;;;;;2.58;1.95;;;;;16.10;95748.00;;;;8328695;28;20663;-72
2022/10/15 07:29:17;;;;;;;1.92;1.70;;;;;16.10;95755.00;;;;8328252;28;20753;-73
2022/10/15 07:33:20;;;;;;;2.00;1.90;;;;;16.20;95768.00;;;;8329061;28;20231;-72
2022/10/15 07:38:01;;;;;;;2.42;1.50;;;;;16.30;95762.00;;;;8328300;28;20548;-73
2022/10/15 07:42:35;;;;;;;2.10;1.55;;;;;16.30;95765.00;;;;8327445;28;20214;-74
2022/10/15 07:47:12;;;;;;;1.60;1.50;;;;;16.40;95766.00;;;;8328074;28;20221;-75
2022/10/15 07:51:15;;;;;;;1.35;1.30;;;;;16.50;95768.00;;;;8328646;28;20217;-73
2022/10/15 07:55:27;;;;;;;1.67;1.67;;;;;16.60;95783.00;;;;8328864;28;20221;-72
2022/10/15 07:59:58;;;;;;;2.92;1.60;;;;;16.60;95776.00;;;;8327328;28;20606;-71
2022/10/15 08:04:35;;;;;;;1.30;1.30;;;;;16.50;95782.00;;;;8328451;28;20662;-71
2022/10/15 08:09:11;;;;;;;1.70;1.60;;;;;16.60;95789.00;;;;8327471;28;20240;-72
2022/10/15 08:13:16;;;;;;;2.38;1.45;;;;;16.60;95795.00;;;;8326818;28;20224;-75
2022/10/15 08:17:19;;;;;;;1.38;1.23;;;;;16.60;95798.00;;;;8331386;28;20293;-74
2022/10/15 08:21:56;;;;;;;1.77;1.30;;;;;16.60;95793.00;;;;8328401;28;20629;-73
2022/10/15 08:26:33;;;;;;;2.55;1.60;;;;;16.70;95800.00;;;;8326056;28;20655;-75
2022/10/15 08:31:11;;;;;;;1.50;1.50;;;;;16.80;95812.00;;;;8328810;28;20221;-75
2022/10/15 08:35:48;;;;;;;1.55;1.40;;;;;16.80;95818.00;;;;8326678;28;20292;-80
2022/10/15 08:40:26;;;;;;;1.15;1.13;;;;;16.90;95824.00;;;;8327092;28;20239;-81
2022/10/15 08:45:02;;;;;;;3.25;1.42;;;;;16.90;95832.00;;;;8325971;28;20221;-79
2022/10/15 08:49:44;;;;;;;1.50;1.40;;;;;16.90;95838.00;;;;8327714;28;20248;-84
2022/10/15 08:54:16;;;;;;;1.10;1.10;;;;;17.00;95843.00;;;;8327124;28;20659;-85
2022/10/15 08:59:00;;;;;;;1.70;1.60;;;;;17.00;95842.00;;;;8333199;28;20233;-86
2022/10/15 09:03:36;;;;;;;1.77;1.67;;;;;17.10;95856.00;;;;8333683;28;20213;-82
2022/10/15 09:07:46;;;;;;;2.00;1.90;;;;;17.10;95849.00;;;;8332752;28;20279;-80
2022/10/15 09:12:03;;;;;;;1.95;1.85;;;;;17.30;95852.00;;;;8331875;28;20278;-78
2022/10/15 09:16:15;;;;;;;2.08;1.77;;;;;17.40;95859.00;;;;8329026;28;20694;-80
2022/10/15 09:20:20;;;;;;;2.05;1.90;;;;;17.40;95864.00;;;;8338657;28;20221;-82
2022/10/15 09:24:28;;;;;;;2.10;1.90;;;;;17.50;95869.00;;;;8332552;28;20673;-81
2022/10/15 09:28:41;;;;;;;1.85;1.55;;;;;17.50;95866.00;;;;8332813;28;20225;-80
2022/10/15 09:33:08;;;;;;;2.10;1.95;;;;;17.50;95874.00;;;;8331910;28;20236;-78
2022/10/15 09:37:17;;;;;;;4.07;2.10;;;;;17.50;95880.00;;;;8332534;28;20348;-78
2022/10/15 09:41:35;;;;;;;2.58;2.30;;;;;17.60;95883.00;;;;8330652;28;20313;-77
2022/10/15 09:45:56;;;;;;;1.80;1.70;;;;;17.60;95892.00;;;;8330333;28;20308;-74
2022/10/15 09:50:26;;;;;;;2.88;2.15;;;;;17.70;95889.00;;;;8331205;28;20267;-71
2022/10/15 09:55:03;;;;;;;2.13;1.92;;;;;17.80;95900.00;;;;8321988;28;20217;-72
2022/10/15 09:59:51;;;;;;;1.60;1.60;;;;;17.90;95910.00;;;;8330774;28;20232;-71
2022/10/15 10:04:17;;;;;;;6.93;1.58;;;;;17.90;95911.00;;;;8331708;28;20586;-72
2022/10/15 10:08:52;;;;;;;1.80;1.70;;;;;17.90;95914.00;;;;8331457;28;20229;-71
2022/10/15 10:12:56;;;;;;;3.15;1.80;;;;;17.90;95920.00;;;;8331317;28;20221;-72
2022/10/15 10:17:30;;;;;;;1.60;1.50;;;;;17.90;95930.00;;;;8328819;28;20221;-72
2022/10/15 10:22:13;;;;;;;1.23;1.23;;;;;17.80;95924.00;;;;8330335;28;20218;-73
2022/10/15 10:26:16;;;;;;;1.58;1.58;;;;;17.90;95929.00;;;;8330357;28;20535;-73
2022/10/15 10:30:19;;;;;;;2.13;1.92;;;;;18.00;95925.00;;;;8327699;28;20225;-73
2022/10/15 10:34:27;;;;;;;1.98;1.88;;;;;18.10;95928.00;;;;8330792;28;20551;-73
2022/10/15 10:39:02;;;;;;;2.90;2.10;;;;;18.30;95936.00;;;;8330670;28;20228;-74
2022/10/15 10:43:37;;;;;;;1.95;1.65;;;;;18.40;95938.00;;;;8329753;28;20344;-73
2022/10/15 10:48:18;;;;;;;2.90;2.10;;;;;18.80;95941.00;;;;8329117;28;20244;-73
2022/10/15 10:52:27;;;;;;;2.10;1.70;;;;;19.20;95948.00;;;;8320546;28;20229;-73
2022/10/15 10:57:01;;;;;;;2.35;1.40;;;;;19.70;95948.00;;;;8327755;28;20567;-75
2022/10/15 11:01:35;;;;;;;1.48;1.48;;;;;20.10;95950.00;;;;8332749;28;20221;-76
2022/10/15 11:06:12;;;;;;;1.42;1.30;;;;;20.20;95943.00;;;;8327936;28;20217;-76
2022/10/15 11:10:51;;;;;;;2.38;1.30;;;;;19.90;95948.00;;;;8328158;28;20678;-76
2022/10/15 11:15:02;;;;;;;1.13;1.13;;;;;20.10;95944.00;;;;8328682;28;20213;-77
2022/10/15 11:19:21;;;;;;;3.30;1.23;;;;;20.30;95936.00;;;;8327655;28;20225;-78
2022/10/15 11:24:06;;;;;;;1.27;1.10;;;;;20.50;95943.00;;;;8328996;28;20217;-77
2022/10/15 11:28:31;;;;;;;1.00;1.00;;;;;20.50;95933.00;;;;8329093;28;20220;-78
2022/10/15 11:33:06;;;;;;;1.00;1.00;;;;;20.40;95929.00;;;;8328277;28;20255;-78
2022/10/15 11:37:38;;;;;;;0.90;0.90;;;;;20.10;95937.00;;;;8323978;28;20263;-77
2022/10/15 11:42:08;;;;;;;2.85;1.00;;;;;20.00;95941.00;;;;8326385;28;20228;-76
2022/10/15 11:46:49;;;;;;;1.17;1.17;;;;;20.10;95950.00;;;;8326237;28;20220;-76
2022/10/15 11:51:31;;;;;;;1.13;0.90;;;;;20.10;95943.00;;;;8325368;28;20221;-75
2022/10/15 11:56:01;;;;;;;1.10;1.08;;;;;20.30;95942.00;;;;8325620;28;20308;-75
2022/10/15 12:00:16;;;;;;;2.28;0.90;;;;;20.60;95946.00;;;;8327205;28;20690;-77
2022/10/15 12:04:34;;;;;;;1.08;1.08;;;;;20.60;95950.00;;;;8326794;28;20229;-77
2022/10/15 12:08:40;;;;;;;1.23;0.85;;;;;20.70;95943.00;;;;8328100;28;20221;-77
2022/10/15 12:13:16;;;;;;;1.58;1.00;;;;;20.60;95947.00;;;;8327574;28;20225;-76
2022/10/15 12:17:26;;;;;;;1.08;1.08;;;;;20.80;95944.00;;;;8326106;28;20233;-78
2022/10/15 12:22:05;;;;;;;0.90;0.82;;;;;20.80;95954.00;;;;8327308;28;20550;-78
2022/10/15 12:26:37;;;;;;;1.35;0.70;;;;;20.70;95955.00;;;;8325524;28;20221;-76
2022/10/15 12:31:12;;;;;;;0.90;0.90;;;;;20.70;95944.00;;;;8329489;28;20223;-75
2022/10/15 12:35:53;;;;;;;0.75;0.75;;;;;20.70;95942.00;;;;8331705;28;20256;-76
2022/10/15 12:40:27;;;;;;;1.95;0.90;;;;;20.70;95944.00;;;;8333048;28;20701;-76
2022/10/15 12:45:06;;;;;;;0.70;0.70;;;;;20.50;95951.00;;;;8331750;28;20299;-76
2022/10/15 12:49:47;;;;;;;0.80;0.80;;;;;20.60;95941.00;;;;8331309;28;20283;-76
2022/10/15 12:54:27;;;;;;;0.90;0.90;;;;;20.60;95937.00;;;;8331080;28;20228;-76
2022/10/15 12:59:05;;;;;;;5.20;1.05;;;;;20.40;95947.00;;;;8331913;28;20244;-75
2022/10/15 13:03:42;;;;;;;1.67;0.85;;;;;20.20;95943.00;;;;8331099;28;20569;-76
2022/10/15 13:08:22;;;;;;;1.38;0.85;;;;;20.10;95945.00;;;;8331218;28;20225;-76
2022/10/15 13:12:55;;;;;;;2.42;0.90;;;;;19.90;95949.00;;;;8326567;28;20225;-75
2022/10/15 13:22:32;;;;;;;0.82;0.82;;;;;18.50;95951.00;;;;8332426;28;20232;-73
2022/10/15 13:27:13;;;;;;;1.98;1.38;;;;;18.30;95949.00;;;;8332644;28;20221;-74
2022/10/15 13:31:43;;;;;;;3.30;1.20;;;;;18.10;95957.00;;;;8332104;28;20220;-78
2022/10/15 13:36:20;;;;;;;1.17;1.00;;;;;18.20;95952.00;;;;8332140;28;20294;-79
2022/10/15 13:40:56;;;;;;;4.63;1.27;;;;;18.50;95953.00;;;;8330591;28;20283;-79
2022/10/15 13:45:30;;;;;;;3.70;1.10;;;;;18.50;95965.00;;;;8332165;28;20221;-78
2022/10/15 13:50:10;;;;;;;2.05;1.05;;;;;18.50;95958.00;;;;8331627;28;20250;-78
2022/10/15 13:54:47;;;;;;;2.25;0.88;;;;;18.60;95959.00;;;;8331361;28;20216;-77
2022/10/15 13:59:26;;;;;;;1.98;0.90;;;;;18.60;95959.00;;;;8332124;28;20225;-78
2022/10/15 14:03:31;;;;;;;1.20;1.20;;;;;18.60;95966.00;;;;8331343;28;20248;-78
2022/10/15 14:07:34;;;;;;;1.88;1.10;;;;;18.70;95965.00;;;;8331608;28;20304;-78
2022/10/15 14:12:11;;;;;;;2.53;1.50;;;;;18.70;95972.00;;;;8330969;28;20221;-79
2022/10/15 14:16:21;;;;;;;1.45;1.20;;;;;18.60;95967.00;;;;8330037;28;20229;-78
2022/10/15 14:20:50;;;;;;;1.30;1.30;;;;;18.70;95970.00;;;;8328310;28;20237;-79
2022/10/15 14:25:27;;;;;;;2.15;1.70;;;;;19.10;95972.00;;;;8330494;28;20217;-78
2022/10/15 14:30:13;;;;;;;2.35;1.48;;;;;19.40;95958.00;;;;8330774;28;20226;-78
2022/10/15 14:34:45;;;;;;;2.38;1.30;;;;;19.50;95961.00;;;;8330257;28;20221;-77
2022/10/15 14:39:26;;;;;;;4.63;1.40;;;;;19.30;95964.00;;;;8327052;28;20224;-79
2022/10/15 14:43:42;;;;;;;3.70;1.38;;;;;19.20;95965.00;;;;8328332;28;20217;-77
2022/10/15 14:48:19;;;;;;;1.00;1.00;;;;;19.20;95970.00;;;;8329600;28;20559;-77
2022/10/15 14:52:58;;;;;;;2.00;1.30;;;;;19.20;95970.00;;;;8328636;28;20232;-76
2022/10/15 14:57:35;;;;;;;2.00;1.00;;;;;19.20;95981.00;;;;8328534;28;20247;-78
2022/10/15 15:02:14;;;;;;;2.00;1.20;;;;;19.20;95986.00;;;;8329202;28;20237;-78
2022/10/15 15:06:45;;;;;;;2.58;1.50;;;;;19.30;95981.00;;;;8328983;28;20225;-78
2022/10/15 15:11:24;;;;;;;2.15;1.48;;;;;19.40;95980.00;;;;8326853;28;20232;-78
2022/10/15 15:15:27;;;;;;;1.48;1.38;;;;;19.40;95972.00;;;;8328986;28;20735;-81
2022/10/15 15:19:55;;;;;;;3.50;1.17;;;;;19.40;95971.00;;;;8328640;28;20237;-81
2022/10/15 15:24:32;;;;;;;2.83;1.17;;;;;19.30;95975.00;;;;8328571;28;20300;-80
2022/10/15 15:28:45;;;;;;;1.55;1.42;;;;;19.10;95981.00;;;;8328726;28;20248;-81
2022/10/15 15:33:19;;;;;;;1.63;1.52;;;;;19.00;95974.00;;;;8327949;28;20221;-81
2022/10/15 15:37:56;;;;;;;2.92;1.23;;;;;18.80;95991.00;;;;8327739;28;20229;-79
2022/10/15 15:42:33;;;;;;;2.47;1.20;;;;;18.70;95990.00;;;;8327457;28;21155;-80
2022/10/15 15:47:10;;;;;;;2.55;1.23;;;;;18.50;95981.00;;;;8327662;28;20229;-81
2022/10/15 15:51:48;;;;;;;4.75;1.40;;;;;18.30;95986.00;;;;8328100;28;20225;-80
2022/10/15 15:56:22;;;;;;;2.10;2.00;;;;;18.20;95991.00;;;;8326531;28;20280;-80
2022/10/15 16:00:59;;;;;;;2.72;2.20;;;;;18.20;95978.00;;;;8328152;28;20255;-82
2022/10/15 16:05:37;;;;;;;1.52;1.42;;;;;18.10;95982.00;;;;8326876;28;20232;-79
2022/10/15 16:09:41;;;;;;;3.00;1.80;;;;;18.10;95985.00;;;;8326876;28;20233;-83
2022/10/15 16:14:15;;;;;;;2.70;1.90;;;;;18.10;95992.00;;;;8327363;28;20221;-82
2022/10/15 16:23:35;;;;;;;2.10;1.90;;;;;18.00;95998.00;;;;8325945;28;20235;-79
2022/10/15 16:27:39;;;;;;;5.68;1.90;;;;;18.00;96002.00;;;;8327360;28;20221;-79
2022/10/15 16:32:13;;;;;;;2.10;1.98;;;;;17.90;96002.00;;;;8326323;28;20217;-79
2022/10/15 16:36:50;;;;;;;4.35;2.22;;;;;17.90;96009.00;;;;8326725;28;20241;-79
2022/10/15 16:40:54;;;;;;;6.07;2.00;;;;;17.90;96006.00;;;;8325797;28;20233;-79
2022/10/15 16:44:58;;;;;;;5.07;1.98;;;;;17.90;96009.00;;;;8325292;28;20659;-79
2022/10/15 16:49:32;;;;;;;3.35;2.00;;;;;17.90;96018.00;;;;8326421;28;20730;-79
2022/10/15 16:53:36;;;;;;;3.50;2.45;;;;;18.00;96027.00;;;;8326173;28;20679;-79
2022/10/15 16:58:10;;;;;;;2.80;2.38;;;;;18.00;96029.00;;;;8325845;28;20279;-79
2022/10/15 17:02:14;;;;;;;5.25;2.33;;;;;18.00;96035.00;;;;8325336;28;20225;-79
2022/10/15 17:06:49;;;;;;;5.07;2.30;;;;;18.00;96040.00;;;;8325972;28;20225;-78
2022/10/15 17:10:52;;;;;;;4.90;2.40;;;;;18.00;96049.00;;;;8325471;28;20617;-79
2022/10/15 17:14:55;;;;;;;15.07;2.42;;;;;18.00;96055.00;;;;8326576;28;20337;-79
2022/10/15 17:19:00;;;;;;;3.30;3.10;;;;;18.00;96051.00;;;;8332506;28;20220;-79
2022/10/15 17:23:03;;;;;;;5.47;4.43;;;;;18.00;96069.00;;;;8332216;28;20228;-79
2022/10/15 17:27:40;;;;;;;5.13;3.95;;;;;18.00;96073.00;;;;8332354;28;20225;-79
2022/10/15 17:31:43;;;;;;;9.90;5.72;;;;;18.00;96071.00;;;;8337968;28;20229;-78
2022/10/15 17:35:47;;;;;;;6.93;4.53;;;;;18.00;96080.00;;;;8332610;28;20225;-78
2022/10/15 17:39:52;;;;;;;7.68;4.05;;;;;18.00;96087.00;;;;8331269;28;20568;-77
2022/10/15 17:43:57;;;;;;;8.20;5.50;;;;;17.90;96101.00;;;;8332607;28;20232;-75
2022/10/15 17:48:00;;;;;;;8.98;4.28;;;;;17.80;96095.00;;;;8327103;28;20221;-76
2022/10/15 17:52:04;;;;;;;5.88;3.85;;;;;17.70;96097.00;;;;8332813;28;20241;-77
2022/10/15 17:56:38;;;;;;;8.82;3.83;;;;;17.70;96104.00;;;;8331803;28;20218;-76
2022/10/15 18:00:42;;;;;;;7.13;4.47;;;;;17.70;96103.00;;;;8331553;28;20233;-76
2022/10/15 18:05:19;;;;;;;5.35;4.18;;;;;17.60;96104.00;;;;8331784;28;20221;-76
2022/10/15 18:09:24;;;;;;;7.40;3.17;;;;;17.60;96114.00;;;;8363904;28;20229;-76
2022/10/15 18:13:27;;;;;;;6.85;4.15;;;;;17.60;96113.00;;;;8363837;28;20651;-77
2022/10/15 18:17:30;;;;;;;8.32;4.18;;;;;17.70;96121.00;;;;8364525;28;20685;-76
2022/10/15 18:22:06;;;;;;;7.68;4.00;;;;;17.70;96123.00;;;;8364183;28;20280;-76
2022/10/15 18:26:13;;;;;;;10.57;4.05;;;;;17.60;96122.00;;;;8330231;28;20264;-77
2022/10/15 18:30:21;;;;;;;4.10;3.70;;;;;17.60;96114.00;;;;8331086;28;20229;-78
2022/10/15 18:34:58;;;;;;;14.68;10.68;;;;;17.50;96109.00;;;;8330792;28;20217;-79
2022/10/15 18:39:01;;;;;;;16.77;10.77;;;;;17.40;96103.00;;;;8330338;28;20218;-79
2022/10/15 18:43:06;;;;;;;23.67;17.33;;;;;17.30;96104.00;;;;8330685;28;20225;-79
2022/10/15 18:47:10;;;;;;;4.43;4.03;;;;;17.30;96105.00;;;;8330218;28;20225;-79
2022/10/15 18:51:45;;;;;;;7.95;5.00;;;;;17.10;96107.00;;;;8330188;28;20221;-80
2022/10/15 18:55:48;;;;;;;10.32;4.32;;;;;17.00;96110.00;;;;8329800;28;20297;-80
2022/10/15 19:00:26;;;;;;;9.10;4.35;;;;;16.80;96118.00;;;;8330123;28;20229;-80
2022/10/15 19:04:29;;;;;;;11.60;3.65;;;;;16.80;96128.00;;;;8328808;28;20221;-80
2022/10/15 19:08:32;;;;;;;4.32;3.75;;;;;16.70;96128.00;;;;8329333;28;20225;-80
2022/10/15 19:12:35;;;;;;;9.57;3.65;;;;;16.70;96131.00;;;;8328871;28;20221;-80
2022/10/15 19:16:40;;;;;;;6.57;4.15;;;;;16.60;96127.00;;;;8329674;28;20218;-80
2022/10/15 19:21:14;;;;;;;7.88;4.05;;;;;16.50;96131.00;;;;8328781;28;27186;-80
2022/10/15 19:25:17;;;;;;;6.22;3.97;;;;;16.50;96131.00;;;;8329199;28;20228;-80
2022/10/15 19:29:20;;;;;;;7.88;4.22;;;;;16.40;96136.00;;;;8329089;28;20658;-80
2022/10/15 19:33:59;;;;;;;7.60;4.22;;;;;16.40;96135.00;;;;8329040;28;20225;-81
2022/10/15 19:38:02;;;;;;;9.98;4.45;;;;;16.30;96145.00;;;;8327557;28;20228;-80
2022/10/15 19:42:39;;;;;;;8.98;4.32;;;;;16.30;96141.00;;;;8328642;28;20556;-81
2022/10/15 19:46:44;;;;;;;10.63;3.88;;;;;16.20;96142.00;;;;8328930;28;20267;-81
2022/10/15 19:50:49;;;;;;;9.15;4.50;;;;;16.10;96135.00;;;;8328200;28;20236;-82
2022/10/15 19:54:52;;;;;;;12.75;5.00;;;;;16.10;96136.00;;;;8328612;28;20221;-82
2022/10/15 19:59:29;;;;;;;6.75;3.80;;;;;15.90;96149.00;;;;8328556;28;20217;-81
2022/10/15 20:03:32;;;;;;;5.45;4.18;;;;;15.80;96145.00;;;;8328166;28;20309;-82
2022/10/15 20:08:09;;;;;;;9.98;4.30;;;;;15.70;96160.00;;;;8327481;28;20225;-81
2022/10/15 20:12:12;;;;;;;8.57;3.60;;;;;15.50;96169.00;;;;8327982;28;20602;-81
2022/10/15 20:16:18;;;;;;;5.75;3.88;;;;;15.50;96175.00;;;;8327400;28;20305;-81
2022/10/15 20:20:26;;;;;;;11.50;3.88;;;;;15.40;96175.00;;;;8328064;28;20233;-81
2022/10/15 20:24:31;;;;;;;7.45;3.53;;;;;15.40;96178.00;;;;8327648;28;20233;-81
2022/10/15 20:29:05;;;;;;;9.57;4.22;;;;;15.30;96176.00;;;;8327700;28;20225;-81
2022/10/15 20:33:08;;;;;;;8.05;4.10;;;;;15.20;96170.00;;;;8327025;28;20283;-82
2022/10/15 20:37:12;;;;;;;12.77;4.18;;;;;15.20;96178.00;;;;8327242;28;20251;-82
2022/10/15 20:41:50;;;;;;;8.23;4.63;;;;;15.20;96185.00;;;;8327601;28;20236;-82
2022/10/15 20:45:55;;;;;;;10.65;4.88;;;;;15.30;96189.00;;;;8326622;28;20663;-82
2022/10/15 20:50:30;;;;;;;11.57;5.38;;;;;15.40;96196.00;;;;8329117;28;20229;-82
2022/10/15 20:54:34;;;;;;;12.02;4.97;;;;;15.50;96205.00;;;;8333276;28;20217;-83
2022/10/15 20:59:07;;;;;;;9.82;4.95;;;;;15.70;96214.00;;;;8333795;28;20554;-82
2022/10/15 21:03:12;;;;;;;12.00;4.88;;;;;15.80;96213.00;;;;8332808;28;20230;-83
2022/10/15 21:07:46;;;;;;;6.68;4.80;;;;;15.90;96223.00;;;;8333213;28;20225;-83
2022/10/15 21:11:49;;;;;;;9.45;4.70;;;;;16.00;96222.00;;;;8333712;28;20217;-82
2022/10/15 21:15:57;;;;;;;12.90;4.90;;;;;16.10;96230.00;;;;8333434;28;20233;-83
2022/10/15 21:20:29;;;;;;;9.02;5.00;;;;;16.20;96229.00;;;;8332713;28;20570;-82
2022/10/15 21:24:34;;;;;;;10.48;4.78;;;;;16.20;96237.00;;;;8332583;28;20229;-83
2022/10/15 21:29:11;;;;;;;5.93;4.60;;;;;16.30;96231.00;;;;8332430;28;20678;-83
2022/10/15 21:33:15;;;;;;;7.90;4.88;;;;;16.30;96238.00;;;;8333097;28;20217;-84
2022/10/15 21:37:53;;;;;;;12.18;5.53;;;;;16.30;96248.00;;;;8331733;28;20271;-83
2022/10/15 21:41:56;;;;;;;12.18;5.35;;;;;16.40;96252.00;;;;8332608;28;20236;-83
2022/10/15 21:46:33;;;;;;;15.98;5.88;;;;;16.30;96265.00;;;;8332060;28;20217;-84
2022/10/15 21:50:36;;;;;;;11.45;5.20;;;;;16.30;96270.00;;;;8331884;28;20272;-82
2022/10/15 21:55:14;;;;;;;10.60;5.25;;;;;16.30;96255.00;;;;8331674;28;20740;-84
2022/10/15 21:59:17;;;;;;;9.18;4.80;;;;;16.30;96261.00;;;;8332437;28;20587;-84